sensor_id;sensor_type;location;lat;lon;timestamp;pressure;altitude;pressure_sealevel;temperature
8362;BMP180;4218;48.326;14.304;2022-08-21T00:01:33;98331.00;;;16.10
8362;BMP180;4218;48.326;14.304;2022-08-21T00:04:05;98334.00;;;16.00
8362;BMP180;4218;48.326;14.304;2022-08-21T00:06:30;98335.00;;;16.10
8362;BMP180;4218;48.326;14.304;2022-08-21T00:08:57;98319.00;;;16.10
8362;BMP180;4218;48.326;14.304;2022-08-21T00:11:23;98325.00;;;16.20
8362;BMP180;4218;48.326;14.304;2022-08-21T00:13:48;98324.00;;;16.10
8362;BMP180;4218;48.326;14.304;2022-08-21T00:16:14;98321.00;;;16.00
8362;BMP180;4218;48.326;14.304;2022-08-21T00:18:40;98312.00;;;16.10
8362;BMP180;4218;48.326;14.304;2022-08-21T00:21:06;98331.00;;;16.10
8362;BMP180;4218;48.326;14.304;2022-08-21T00:23:33;98308.00;;;16.00
8362;BMP180;4218;48.326;14.304;2022-08-21T00:25:59;98314.00;;;16.10
8362;BMP180;4218;48.326;14.304;2022-08-21T00:28:24;98304.00;;;16.10
8362;BMP180;4218;48.326;14.304;2022-08-21T00:30:50;98317.00;;;16.10
8362;BMP180;4218;48.326;14.304;2022-08-21T00:33:15;98318.00;;;16.20
8362;BMP180;4218;48.326;14.304;2022-08-21T00:35:42;98304.00;;;16.20
8362;BMP180;4218;48.326;14.304;2022-08-21T00:38:08;98307.00;;;16.20
8362;BMP180;4218;48.326;14.304;2022-08-21T00:41:10;98298.00;;;16.20
8362;BMP180;4218;48.326;14.304;2022-08-21T00:43:32;98302.00;;;16.30
8362;BMP180;4218;48.326;14.304;2022-08-21T00:45:58;98301.00;;;16.20
8362;BMP180;4218;48.326;14.304;2022-08-21T00:48:25;98299.00;;;16.30
8362;BMP180;4218;48.326;14.304;2022-08-21T00:51:03;98305.00;;;16.10
8362;BMP180;4218;48.326;14.304;2022-08-21T00:53:30;98301.00;;;16.10
8362;BMP180;4218;48.326;14.304;2022-08-21T00:55:59;98294.00;;;16.10
8362;BMP180;4218;48.326;14.304;2022-08-21T00:58:28;98296.00;;;16.10
8362;BMP180;4218;48.326;14.304;2022-08-21T01:00:56;98309.00;;;16.10
8362;BMP180;4218;48.326;14.304;2022-08-21T01:03:23;98298.00;;;16.10
8362;BMP180;4218;48.326;14.304;2022-08-21T01:05:50;98297.00;;;16.10
8362;BMP180;4218;48.326;14.304;2022-08-21T01:08:17;98294.00;;;16.20
8362;BMP180;4218;48.326;14.304;2022-08-21T01:10:44;98294.00;;;16.20
8362;BMP180;4218;48.326;14.304;2022-08-21T01:13:12;98284.00;;;16.20
8362;BMP180;4218;48.326;14.304;2022-08-21T01:15:42;98278.00;;;16.20
8362;BMP180;4218;48.326;14.304;2022-08-21T01:18:09;98275.00;;;16.20
8362;BMP180;4218;48.326;14.304;2022-08-21T01:20:38;98290.00;;;16.20
8362;BMP180;4218;48.326;14.304;2022-08-21T01:23:05;98290.00;;;16.20
8362;BMP180;4218;48.326;14.304;2022-08-21T01:25:31;98286.00;;;16.10
8362;BMP180;4218;48.326;14.304;2022-08-21T01:27:59;98283.00;;;16.20
8362;BMP180;4218;48.326;14.304;2022-08-21T01:30:28;98282.00;;;16.20
8362;BMP180;4218;48.326;14.304;2022-08-21T01:32:55;98269.00;;;16.20
8362;BMP180;4218;48.326;14.304;2022-08-21T01:35:21;98279.00;;;16.20
8362;BMP180;4218;48.326;14.304;2022-08-21T01:37:47;98275.00;;;16.20
8362;BMP180;4218;48.326;14.304;2022-08-21T01:40:15;98275.00;;;16.20
8362;BMP180;4218;48.326;14.304;2022-08-21T01:42:41;98268.00;;;16.20
8362;BMP180;4218;48.326;14.304;2022-08-21T01:45:07;98266.00;;;16.20
8362;BMP180;4218;48.326;14.304;2022-08-21T01:47:33;98265.00;;;16.10
8362;BMP180;4218;48.326;14.304;2022-08-21T01:49:59;98263.00;;;16.10
8362;BMP180;4218;48.326;14.304;2022-08-21T01:52:25;98271.00;;;16.20
8362;BMP180;4218;48.326;14.304;2022-08-21T01:54:50;98263.00;;;16.10
8362;BMP180;4218;48.326;14.304;2022-08-21T01:57:16;98262.00;;;16.20
8362;BMP180;4218;48.326;14.304;2022-08-21T01:59:42;98254.00;;;16.30
8362;BMP180;4218;48.326;14.304;2022-08-21T02:02:07;98257.00;;;16.20
8362;BMP180;4218;48.326;14.304;2022-08-21T02:04:33;98254.00;;;16.20
8362;BMP180;4218;48.326;14.304;2022-08-21T02:07:00;98256.00;;;16.20
8362;BMP180;4218;48.326;14.304;2022-08-21T02:09:26;98258.00;;;16.20
8362;BMP180;4218;48.326;14.304;2022-08-21T02:11:52;98256.00;;;16.20
8362;BMP180;4218;48.326;14.304;2022-08-21T02:14:18;98257.00;;;16.30
8362;BMP180;4218;48.326;14.304;2022-08-21T02:16:44;98246.00;;;16.30
8362;BMP180;4218;48.326;14.304;2022-08-21T02:19:12;98246.00;;;16.40
8362;BMP180;4218;48.326;14.304;2022-08-21T02:21:38;98252.00;;;16.40
8362;BMP180;4218;48.326;14.304;2022-08-21T02:24:03;98242.00;;;16.40
8362;BMP180;4218;48.326;14.304;2022-08-21T02:26:29;98246.00;;;16.30
8362;BMP180;4218;48.326;14.304;2022-08-21T02:28:55;98246.00;;;16.40
8362;BMP180;4218;48.326;14.304;2022-08-21T02:31:20;98240.00;;;16.40
8362;BMP180;4218;48.326;14.304;2022-08-21T02:33:45;98242.00;;;16.40
8362;BMP180;4218;48.326;14.304;2022-08-21T02:36:11;98232.00;;;16.30
8362;BMP180;4218;48.326;14.304;2022-08-21T02:38:39;98238.00;;;16.40
8362;BMP180;4218;48.326;14.304;2022-08-21T02:41:07;98244.00;;;16.60
8362;BMP180;4218;48.326;14.304;2022-08-21T02:43:34;98233.00;;;16.70
8362;BMP180;4218;48.326;14.304;2022-08-21T02:45:59;98233.00;;;16.60
8362;BMP180;4218;48.326;14.304;2022-08-21T02:48:30;98236.00;;;16.60
8362;BMP180;4218;48.326;14.304;2022-08-21T02:51:08;98238.00;;;16.60
8362;BMP180;4218;48.326;14.304;2022-08-21T02:53:35;98235.00;;;16.50
8362;BMP180;4218;48.326;14.304;2022-08-21T02:56:03;98236.00;;;16.60
8362;BMP180;4218;48.326;14.304;2022-08-21T02:58:31;98224.00;;;16.60
8362;BMP180;4218;48.326;14.304;2022-08-21T03:01:00;98229.00;;;16.50
8362;BMP180;4218;48.326;14.304;2022-08-21T03:03:28;98230.00;;;16.50
8362;BMP180;4218;48.326;14.304;2022-08-21T03:05:55;98233.00;;;16.50
8362;BMP180;4218;48.326;14.304;2022-08-21T03:08:22;98244.00;;;16.70
8362;BMP180;4218;48.326;14.304;2022-08-21T03:10:49;98235.00;;;16.60
8362;BMP180;4218;48.326;14.304;2022-08-21T03:13:16;98244.00;;;16.50
8362;BMP180;4218;48.326;14.304;2022-08-21T03:15:43;98240.00;;;16.60
8362;BMP180;4218;48.326;14.304;2022-08-21T03:18:10;98245.00;;;16.60
8362;BMP180;4218;48.326;14.304;2022-08-21T03:20:39;98242.00;;;16.60
8362;BMP180;4218;48.326;14.304;2022-08-21T03:23:06;98241.00;;;16.60
8362;BMP180;4218;48.326;14.304;2022-08-21T03:25:32;98255.00;;;16.50
8362;BMP180;4218;48.326;14.304;2022-08-21T03:28:03;98242.00;;;16.60
8362;BMP180;4218;48.326;14.304;2022-08-21T03:30:29;98248.00;;;16.60
8362;BMP180;4218;48.326;14.304;2022-08-21T03:32:57;98240.00;;;16.50
8362;BMP180;4218;48.326;14.304;2022-08-21T03:35:23;98232.00;;;16.40
8362;BMP180;4218;48.326;14.304;2022-08-21T03:37:49;98238.00;;;16.40
8362;BMP180;4218;48.326;14.304;2022-08-21T03:40:16;98233.00;;;16.70
8362;BMP180;4218;48.326;14.304;2022-08-21T03:42:42;98238.00;;;16.50
8362;BMP180;4218;48.326;14.304;2022-08-21T03:45:08;98240.00;;;16.50
8362;BMP180;4218;48.326;14.304;2022-08-21T03:47:34;98243.00;;;16.50
8362;BMP180;4218;48.326;14.304;2022-08-21T03:50:03;98243.00;;;16.50
8362;BMP180;4218;48.326;14.304;2022-08-21T03:52:29;98241.00;;;16.70
8362;BMP180;4218;48.326;14.304;2022-08-21T03:54:55;98246.00;;;16.60
8362;BMP180;4218;48.326;14.304;2022-08-21T03:57:21;98241.00;;;16.50
8362;BMP180;4218;48.326;14.304;2022-08-21T03:59:47;98244.00;;;16.40
8362;BMP180;4218;48.326;14.304;2022-08-21T04:02:16;98245.00;;;16.50
8362;BMP180;4218;48.326;14.304;2022-08-21T04:04:42;98242.00;;;16.40
8362;BMP180;4218;48.326;14.304;2022-08-21T04:07:08;98241.00;;;16.60
8362;BMP180;4218;48.326;14.304;2022-08-21T04:09:34;98250.00;;;16.50
8362;BMP180;4218;48.326;14.304;2022-08-21T04:11:59;98248.00;;;16.40
8362;BMP180;4218;48.326;14.304;2022-08-21T04:14:25;98246.00;;;16.70
8362;BMP180;4218;48.326;14.304;2022-08-21T04:16:51;98250.00;;;16.60
8362;BMP180;4218;48.326;14.304;2022-08-21T04:19:17;98244.00;;;16.50
8362;BMP180;4218;48.326;14.304;2022-08-21T04:21:43;98244.00;;;16.50
8362;BMP180;4218;48.326;14.304;2022-08-21T04:24:09;98266.00;;;16.50
8362;BMP180;4218;48.326;14.304;2022-08-21T04:26:36;98266.00;;;16.60
8362;BMP180;4218;48.326;14.304;2022-08-21T04:29:03;98264.00;;;16.60
8362;BMP180;4218;48.326;14.304;2022-08-21T04:31:32;98261.00;;;16.50
8362;BMP180;4218;48.326;14.304;2022-08-21T04:33:57;98256.00;;;16.50
8362;BMP180;4218;48.326;14.304;2022-08-21T04:36:24;98275.00;;;16.50
8362;BMP180;4218;48.326;14.304;2022-08-21T04:38:49;98260.00;;;16.70
8362;BMP180;4218;48.326;14.304;2022-08-21T04:41:15;98274.00;;;16.50
8362;BMP180;4218;48.326;14.304;2022-08-21T04:43:41;98273.00;;;16.60
8362;BMP180;4218;48.326;14.304;2022-08-21T04:46:07;98269.00;;;16.60
8362;BMP180;4218;48.326;14.304;2022-08-21T04:48:33;98274.00;;;16.70
8362;BMP180;4218;48.326;14.304;2022-08-21T04:51:12;98285.00;;;16.70
8362;BMP180;4218;48.326;14.304;2022-08-21T04:53:51;98292.00;;;16.70
8362;BMP180;4218;48.326;14.304;2022-08-21T04:56:24;98284.00;;;16.80
8362;BMP180;4218;48.326;14.304;2022-08-21T04:58:53;98268.00;;;16.80
8362;BMP180;4218;48.326;14.304;2022-08-21T05:01:23;98278.00;;;16.80
8362;BMP180;4218;48.326;14.304;2022-08-21T05:03:53;98289.00;;;16.80
8362;BMP180;4218;48.326;14.304;2022-08-21T05:06:20;98290.00;;;16.90
8362;BMP180;4218;48.326;14.304;2022-08-21T05:08:48;98294.00;;;16.80
8362;BMP180;4218;48.326;14.304;2022-08-21T05:11:14;98285.00;;;16.70
8362;BMP180;4218;48.326;14.304;2022-08-21T05:13:40;98278.00;;;16.70
8362;BMP180;4218;48.326;14.304;2022-08-21T05:16:08;98289.00;;;16.80
8362;BMP180;4218;48.326;14.304;2022-08-21T05:18:34;98300.00;;;16.80
8362;BMP180;4218;48.326;14.304;2022-08-21T05:20:59;98289.00;;;16.80
8362;BMP180;4218;48.326;14.304;2022-08-21T05:23:25;98300.00;;;16.80
8362;BMP180;4218;48.326;14.304;2022-08-21T05:25:52;98304.00;;;16.90
8362;BMP180;4218;48.326;14.304;2022-08-21T05:28:18;98290.00;;;16.90
8362;BMP180;4218;48.326;14.304;2022-08-21T05:30:44;98303.00;;;16.90
8362;BMP180;4218;48.326;14.304;2022-08-21T05:33:10;98293.00;;;16.90
8362;BMP180;4218;48.326;14.304;2022-08-21T05:35:36;98293.00;;;17.00
8362;BMP180;4218;48.326;14.304;2022-08-21T05:38:03;98307.00;;;17.00
8362;BMP180;4218;48.326;14.304;2022-08-21T05:40:28;98306.00;;;17.00
8362;BMP180;4218;48.326;14.304;2022-08-21T05:42:55;98307.00;;;17.00
8362;BMP180;4218;48.326;14.304;2022-08-21T05:45:29;98313.00;;;17.00
8362;BMP180;4218;48.326;14.304;2022-08-21T05:47:54;98304.00;;;17.10
8362;BMP180;4218;48.326;14.304;2022-08-21T05:50:21;98324.00;;;17.10
8362;BMP180;4218;48.326;14.304;2022-08-21T05:52:46;98323.00;;;17.20
8362;BMP180;4218;48.326;14.304;2022-08-21T05:55:12;98310.00;;;17.10
8362;BMP180;4218;48.326;14.304;2022-08-21T05:57:38;98301.00;;;17.10
8362;BMP180;4218;48.326;14.304;2022-08-21T06:00:09;98303.00;;;17.10
8362;BMP180;4218;48.326;14.304;2022-08-21T06:02:38;98316.00;;;17.10
8362;BMP180;4218;48.326;14.304;2022-08-21T06:05:04;98312.00;;;17.20
8362;BMP180;4218;48.326;14.304;2022-08-21T06:07:30;98305.00;;;17.20
8362;BMP180;4218;48.326;14.304;2022-08-21T06:09:56;98301.00;;;17.10
8362;BMP180;4218;48.326;14.304;2022-08-21T06:12:21;98311.00;;;17.10
8362;BMP180;4218;48.326;14.304;2022-08-21T06:14:47;98317.00;;;17.10
8362;BMP180;4218;48.326;14.304;2022-08-21T06:17:12;98307.00;;;17.20
8362;BMP180;4218;48.326;14.304;2022-08-21T06:19:39;98314.00;;;17.20
8362;BMP180;4218;48.326;14.304;2022-08-21T06:22:04;98316.00;;;17.30
8362;BMP180;4218;48.326;14.304;2022-08-21T06:24:30;98307.00;;;17.30
8362;BMP180;4218;48.326;14.304;2022-08-21T06:26:56;98317.00;;;17.30
8362;BMP180;4218;48.326;14.304;2022-08-21T06:29:23;98305.00;;;17.40
8362;BMP180;4218;48.326;14.304;2022-08-21T06:31:50;98321.00;;;17.40
8362;BMP180;4218;48.326;14.304;2022-08-21T06:34:17;98317.00;;;17.40
8362;BMP180;4218;48.326;14.304;2022-08-21T06:36:43;98308.00;;;17.40
8362;BMP180;4218;48.326;14.304;2022-08-21T06:39:08;98308.00;;;17.40
8362;BMP180;4218;48.326;14.304;2022-08-21T06:41:34;98314.00;;;17.40
8362;BMP180;4218;48.326;14.304;2022-08-21T06:43:59;98301.00;;;17.30
8362;BMP180;4218;48.326;14.304;2022-08-21T06:46:27;98312.00;;;17.30
8362;BMP180;4218;48.326;14.304;2022-08-21T06:48:53;98298.00;;;17.30
8362;BMP180;4218;48.326;14.304;2022-08-21T06:51:18;98323.00;;;17.40
8362;BMP180;4218;48.326;14.304;2022-08-21T06:53:44;98317.00;;;17.30
8362;BMP180;4218;48.326;14.304;2022-08-21T06:56:10;98313.00;;;17.40
8362;BMP180;4218;48.326;14.304;2022-08-21T06:58:35;98305.00;;;17.40
8362;BMP180;4218;48.326;14.304;2022-08-21T07:01:02;98315.00;;;17.50
8362;BMP180;4218;48.326;14.304;2022-08-21T07:03:33;98309.00;;;17.50
8362;BMP180;4218;48.326;14.304;2022-08-21T07:05:59;98300.00;;;17.50
8362;BMP180;4218;48.326;14.304;2022-08-21T07:08:26;98305.00;;;17.50
8362;BMP180;4218;48.326;14.304;2022-08-21T07:10:53;98315.00;;;17.60
8362;BMP180;4218;48.326;14.304;2022-08-21T07:13:19;98296.00;;;17.60
8362;BMP180;4218;48.326;14.304;2022-08-21T07:15:45;98311.00;;;17.60
8362;BMP180;4218;48.326;14.304;2022-08-21T07:18:11;98307.00;;;17.70
8362;BMP180;4218;48.326;14.304;2022-08-21T07:20:37;98311.00;;;17.70
8362;BMP180;4218;48.326;14.304;2022-08-21T07:23:10;98308.00;;;17.80
8362;BMP180;4218;48.326;14.304;2022-08-21T07:25:36;98307.00;;;17.80
8362;BMP180;4218;48.326;14.304;2022-08-21T07:28:01;98302.00;;;17.70
8362;BMP180;4218;48.326;14.304;2022-08-21T07:30:27;98313.00;;;17.70
8362;BMP180;4218;48.326;14.304;2022-08-21T07:32:53;98303.00;;;17.60
8362;BMP180;4218;48.326;14.304;2022-08-21T07:35:19;98308.00;;;17.60
8362;BMP180;4218;48.326;14.304;2022-08-21T07:37:45;98309.00;;;17.50
8362;BMP180;4218;48.326;14.304;2022-08-21T07:40:11;98300.00;;;17.50
8362;BMP180;4218;48.326;14.304;2022-08-21T07:42:44;98306.00;;;17.60
8362;BMP180;4218;48.326;14.304;2022-08-21T07:45:11;98303.00;;;17.60
8362;BMP180;4218;48.326;14.304;2022-08-21T07:47:38;98302.00;;;17.70
8362;BMP180;4218;48.326;14.304;2022-08-21T07:50:05;98305.00;;;17.80
8362;BMP180;4218;48.326;14.304;2022-08-21T07:52:30;98301.00;;;17.70
8362;BMP180;4218;48.326;14.304;2022-08-21T07:54:58;98298.00;;;17.80
8362;BMP180;4218;48.326;14.304;2022-08-21T07:57:23;98299.00;;;17.80
8362;BMP180;4218;48.326;14.304;2022-08-21T07:59:48;98308.00;;;17.90
8362;BMP180;4218;48.326;14.304;2022-08-21T08:02:28;98311.00;;;17.90
8362;BMP180;4218;48.326;14.304;2022-08-21T08:04:54;98295.00;;;18.00
8362;BMP180;4218;48.326;14.304;2022-08-21T08:07:20;98308.00;;;17.90
8362;BMP180;4218;48.326;14.304;2022-08-21T08:09:45;98310.00;;;17.90
8362;BMP180;4218;48.326;14.304;2022-08-21T08:12:11;98303.00;;;17.90
8362;BMP180;4218;48.326;14.304;2022-08-21T08:14:37;98304.00;;;17.90
8362;BMP180;4218;48.326;14.304;2022-08-21T08:17:02;98299.00;;;17.80
8362;BMP180;4218;48.326;14.304;2022-08-21T08:19:28;98299.00;;;17.90
8362;BMP180;4218;48.326;14.304;2022-08-21T08:21:54;98300.00;;;18.00
8362;BMP180;4218;48.326;14.304;2022-08-21T08:24:19;98296.00;;;17.90
8362;BMP180;4218;48.326;14.304;2022-08-21T08:26:45;98299.00;;;17.90
8362;BMP180;4218;48.326;14.304;2022-08-21T08:29:11;98304.00;;;18.00
8362;BMP180;4218;48.326;14.304;2022-08-21T08:31:36;98298.00;;;18.10
8362;BMP180;4218;48.326;14.304;2022-08-21T08:34:02;98298.00;;;18.10
8362;BMP180;4218;48.326;14.304;2022-08-21T08:36:33;98300.00;;;18.20
8362;BMP180;4218;48.326;14.304;2022-08-21T08:38:59;98304.00;;;18.10
8362;BMP180;4218;48.326;14.304;2022-08-21T08:41:26;98300.00;;;18.10
8362;BMP180;4218;48.326;14.304;2022-08-21T08:43:54;98289.00;;;18.10
8362;BMP180;4218;48.326;14.304;2022-08-21T08:46:28;98302.00;;;18.20
8362;BMP180;4218;48.326;14.304;2022-08-21T08:49:00;98298.00;;;18.30
8362;BMP180;4218;48.326;14.304;2022-08-21T08:51:57;98293.00;;;18.30
8362;BMP180;4218;48.326;14.304;2022-08-21T08:54:32;98294.00;;;18.30
8362;BMP180;4218;48.326;14.304;2022-08-21T08:57:03;98295.00;;;18.30
8362;BMP180;4218;48.326;14.304;2022-08-21T08:59:39;98300.00;;;18.30
8362;BMP180;4218;48.326;14.304;2022-08-21T09:02:05;98303.00;;;18.40
8362;BMP180;4218;48.326;14.304;2022-08-21T09:04:31;98302.00;;;18.50
8362;BMP180;4218;48.326;14.304;2022-08-21T09:07:18;98298.00;;;18.40
8362;BMP180;4218;48.326;14.304;2022-08-21T09:15:12;98289.00;;;18.50
8362;BMP180;4218;48.326;14.304;2022-08-21T09:23:31;98290.00;;;18.60
8362;BMP180;4218;48.326;14.304;2022-08-21T09:26:14;98289.00;;;18.60
8362;BMP180;4218;48.326;14.304;2022-08-21T09:28:42;98294.00;;;18.60
8362;BMP180;4218;48.326;14.304;2022-08-21T09:31:21;98299.00;;;18.60
8362;BMP180;4218;48.326;14.304;2022-08-21T09:33:46;98300.00;;;18.60
8362;BMP180;4218;48.326;14.304;2022-08-21T09:36:24;98289.00;;;18.60
8362;BMP180;4218;48.326;14.304;2022-08-21T09:38:53;98299.00;;;18.70
8362;BMP180;4218;48.326;14.304;2022-08-21T09:41:29;98305.00;;;18.70
8362;BMP180;4218;48.326;14.304;2022-08-21T09:43:54;98302.00;;;18.70
8362;BMP180;4218;48.326;14.304;2022-08-21T09:46:22;98309.00;;;18.80
8362;BMP180;4218;48.326;14.304;2022-08-21T09:48:54;98299.00;;;18.90
8362;BMP180;4218;48.326;14.304;2022-08-21T09:51:24;98312.00;;;18.90
8362;BMP180;4218;48.326;14.304;2022-08-21T09:57:05;98291.00;;;18.80
8362;BMP180;4218;48.326;14.304;2022-08-21T10:00:07;98300.00;;;18.70
8362;BMP180;4218;48.326;14.304;2022-08-21T10:02:35;98302.00;;;18.70
8362;BMP180;4218;48.326;14.304;2022-08-21T10:05:14;98305.00;;;18.40
8362;BMP180;4218;48.326;14.304;2022-08-21T10:07:56;98303.00;;;18.30
8362;BMP180;4218;48.326;14.304;2022-08-21T10:11:07;98309.00;;;18.30
8362;BMP180;4218;48.326;14.304;2022-08-21T10:19:40;98311.00;;;18.10
8362;BMP180;4218;48.326;14.304;2022-08-21T10:22:53;98303.00;;;18.20
8362;BMP180;4218;48.326;14.304;2022-08-21T10:25:31;98305.00;;;18.10
8362;BMP180;4218;48.326;14.304;2022-08-21T10:28:10;98304.00;;;17.90
8362;BMP180;4218;48.326;14.304;2022-08-21T10:35:59;98304.00;;;17.80
8362;BMP180;4218;48.326;14.304;2022-08-21T10:39:12;98294.00;;;17.90
8362;BMP180;4218;48.326;14.304;2022-08-21T10:42:10;98293.00;;;17.90
8362;BMP180;4218;48.326;14.304;2022-08-21T10:47:45;98297.00;;;18.20
8362;BMP180;4218;48.326;14.304;2022-08-21T10:50:33;98304.00;;;18.20
8362;BMP180;4218;48.326;14.304;2022-08-21T10:53:22;98296.00;;;18.30
8362;BMP180;4218;48.326;14.304;2022-08-21T10:56:04;98290.00;;;18.30
8362;BMP180;4218;48.326;14.304;2022-08-21T11:01:40;98284.00;;;18.60
8362;BMP180;4218;48.326;14.304;2022-08-21T11:04:12;98286.00;;;18.60
8362;BMP180;4218;48.326;14.304;2022-08-21T11:06:46;98297.00;;;18.70
8362;BMP180;4218;48.326;14.304;2022-08-21T11:09:18;98299.00;;;18.70
8362;BMP180;4218;48.326;14.304;2022-08-21T11:11:59;98298.00;;;18.80
8362;BMP180;4218;48.326;14.304;2022-08-21T11:15:05;98288.00;;;18.90
8362;BMP180;4218;48.326;14.304;2022-08-21T11:17:54;98264.00;;;19.00
8362;BMP180;4218;48.326;14.304;2022-08-21T11:20:29;98274.00;;;19.10
8362;BMP180;4218;48.326;14.304;2022-08-21T11:23:18;98286.00;;;19.20
8362;BMP180;4218;48.326;14.304;2022-08-21T11:25:52;98265.00;;;19.30
8362;BMP180;4218;48.326;14.304;2022-08-21T11:28:26;98271.00;;;19.70
8362;BMP180;4218;48.326;14.304;2022-08-21T11:31:17;98274.00;;;19.80
8362;BMP180;4218;48.326;14.304;2022-08-21T11:50:30;98255.00;;;20.40
8362;BMP180;4218;48.326;14.304;2022-08-21T11:53:01;98264.00;;;20.60
8362;BMP180;4218;48.326;14.304;2022-08-21T11:55:41;98249.00;;;20.60
8362;BMP180;4218;48.326;14.304;2022-08-21T11:58:11;98249.00;;;20.60
8362;BMP180;4218;48.326;14.304;2022-08-21T12:00:45;98249.00;;;20.60
8362;BMP180;4218;48.326;14.304;2022-08-21T12:06:09;98257.00;;;20.70
8362;BMP180;4218;48.326;14.304;2022-08-21T12:09:40;98251.00;;;20.80
8362;BMP180;4218;48.326;14.304;2022-08-21T12:11:48;98255.00;;;20.80
8362;BMP180;4218;48.326;14.304;2022-08-21T12:14:17;98251.00;;;20.80
8362;BMP180;4218;48.326;14.304;2022-08-21T12:16:46;98259.00;;;20.80
8362;BMP180;4218;48.326;14.304;2022-08-21T12:24:39;98262.00;;;21.20
8362;BMP180;4218;48.326;14.304;2022-08-21T12:29:48;98259.00;;;21.00
8362;BMP180;4218;48.326;14.304;2022-08-21T12:34:44;98257.00;;;20.90
8362;BMP180;4218;48.326;14.304;2022-08-21T12:39:58;98256.00;;;20.80
8362;BMP180;4218;48.326;14.304;2022-08-21T12:42:34;98258.00;;;20.80
8362;BMP180;4218;48.326;14.304;2022-08-21T12:45:31;98255.00;;;20.90
8362;BMP180;4218;48.326;14.304;2022-08-21T12:50:50;98255.00;;;20.80
8362;BMP180;4218;48.326;14.304;2022-08-21T12:53:31;98251.00;;;20.80
8362;BMP180;4218;48.326;14.304;2022-08-21T12:56:03;98259.00;;;20.90
8362;BMP180;4218;48.326;14.304;2022-08-21T12:58:30;98250.00;;;21.10
8362;BMP180;4218;48.326;14.304;2022-08-21T13:01:02;98249.00;;;21.00
8362;BMP180;4218;48.326;14.304;2022-08-21T13:03:29;98245.00;;;21.00
8362;BMP180;4218;48.326;14.304;2022-08-21T13:05:57;98259.00;;;21.00
8362;BMP180;4218;48.326;14.304;2022-08-21T13:08:24;98261.00;;;20.70
8362;BMP180;4218;48.326;14.304;2022-08-21T13:10:59;98256.00;;;20.50
8362;BMP180;4218;48.326;14.304;2022-08-21T13:13:27;98249.00;;;20.60
8362;BMP180;4218;48.326;14.304;2022-08-21T13:16:03;98251.00;;;20.50
8362;BMP180;4218;48.326;14.304;2022-08-21T13:18:31;98253.00;;;20.60
8362;BMP180;4218;48.326;14.304;2022-08-21T13:21:14;98257.00;;;20.60
8362;BMP180;4218;48.326;14.304;2022-08-21T13:23:40;98259.00;;;20.50
8362;BMP180;4218;48.326;14.304;2022-08-21T13:26:19;98251.00;;;20.50
8362;BMP180;4218;48.326;14.304;2022-08-21T13:28:46;98261.00;;;20.60
8362;BMP180;4218;48.326;14.304;2022-08-21T13:31:17;98256.00;;;20.70
8362;BMP180;4218;48.326;14.304;2022-08-21T13:33:45;98256.00;;;20.90
8362;BMP180;4218;48.326;14.304;2022-08-21T13:36:15;98259.00;;;20.80
8362;BMP180;4218;48.326;14.304;2022-08-21T13:38:43;98261.00;;;20.70
8362;BMP180;4218;48.326;14.304;2022-08-21T13:41:27;98253.00;;;20.60
8362;BMP180;4218;48.326;14.304;2022-08-21T13:44:21;98254.00;;;20.90
8362;BMP180;4218;48.326;14.304;2022-08-21T13:46:51;98251.00;;;20.90
8362;BMP180;4218;48.326;14.304;2022-08-21T13:49:21;98256.00;;;20.70
8362;BMP180;4218;48.326;14.304;2022-08-21T13:51:47;98258.00;;;20.70
8362;BMP180;4218;48.326;14.304;2022-08-21T13:54:23;98260.00;;;20.70
8362;BMP180;4218;48.326;14.304;2022-08-21T13:56:51;98261.00;;;20.80
8362;BMP180;4218;48.326;14.304;2022-08-21T13:59:25;98249.00;;;20.90
8362;BMP180;4218;48.326;14.304;2022-08-21T14:01:59;98252.00;;;21.00
8362;BMP180;4218;48.326;14.304;2022-08-21T14:04:33;98250.00;;;21.20
8362;BMP180;4218;48.326;14.304;2022-08-21T14:06:59;98250.00;;;21.30
8362;BMP180;4218;48.326;14.304;2022-08-21T14:09:32;98248.00;;;21.40
8362;BMP180;4218;48.326;14.304;2022-08-21T14:12:02;98243.00;;;21.60
8362;BMP180;4218;48.326;14.304;2022-08-21T14:14:31;98250.00;;;21.70
8362;BMP180;4218;48.326;14.304;2022-08-21T14:17:01;98242.00;;;21.80
8362;BMP180;4218;48.326;14.304;2022-08-21T14:19:40;98235.00;;;21.90
8362;BMP180;4218;48.326;14.304;2022-08-21T14:22:30;98238.00;;;22.00
8362;BMP180;4218;48.326;14.304;2022-08-21T14:27:32;98240.00;;;22.20
8362;BMP180;4218;48.326;14.304;2022-08-21T14:30:08;98234.00;;;22.20
8362;BMP180;4218;48.326;14.304;2022-08-21T14:32:41;98225.00;;;22.10
8362;BMP180;4218;48.326;14.304;2022-08-21T14:35:07;98226.00;;;22.00
8362;BMP180;4218;48.326;14.304;2022-08-21T14:37:33;98225.00;;;22.10
8362;BMP180;4218;48.326;14.304;2022-08-21T14:39:58;98227.00;;;22.00
8362;BMP180;4218;48.326;14.304;2022-08-21T14:42:24;98224.00;;;22.00
8362;BMP180;4218;48.326;14.304;2022-08-21T14:44:50;98229.00;;;21.90
8362;BMP180;4218;48.326;14.304;2022-08-21T14:47:16;98224.00;;;21.60
8362;BMP180;4218;48.326;14.304;2022-08-21T14:49:41;98226.00;;;21.60
8362;BMP180;4218;48.326;14.304;2022-08-21T14:52:07;98229.00;;;21.40
8362;BMP180;4218;48.326;14.304;2022-08-21T14:54:33;98230.00;;;21.20
8362;BMP180;4218;48.326;14.304;2022-08-21T14:57:03;98229.00;;;20.90
8362;BMP180;4218;48.326;14.304;2022-08-21T14:59:29;98222.00;;;20.80
8362;BMP180;4218;48.326;14.304;2022-08-21T15:01:55;98226.00;;;20.90
8362;BMP180;4218;48.326;14.304;2022-08-21T15:04:21;98228.00;;;20.80
8362;BMP180;4218;48.326;14.304;2022-08-21T15:06:46;98228.00;;;20.70
8362;BMP180;4218;48.326;14.304;2022-08-21T15:09:12;98220.00;;;20.40
8362;BMP180;4218;48.326;14.304;2022-08-21T15:11:37;98218.00;;;20.30
8362;BMP180;4218;48.326;14.304;2022-08-21T15:14:07;98218.00;;;20.40
8362;BMP180;4218;48.326;14.304;2022-08-21T15:16:33;98221.00;;;20.10
8362;BMP180;4218;48.326;14.304;2022-08-21T15:18:59;98220.00;;;20.30
8362;BMP180;4218;48.326;14.304;2022-08-21T15:21:24;98214.00;;;20.30
8362;BMP180;4218;48.326;14.304;2022-08-21T15:23:50;98215.00;;;20.40
8362;BMP180;4218;48.326;14.304;2022-08-21T15:26:15;98212.00;;;20.40
8362;BMP180;4218;48.326;14.304;2022-08-21T15:28:41;98209.00;;;20.40
8362;BMP180;4218;48.326;14.304;2022-08-21T15:31:07;98215.00;;;20.30
8362;BMP180;4218;48.326;14.304;2022-08-21T15:33:33;98215.00;;;20.20
8362;BMP180;4218;48.326;14.304;2022-08-21T15:35:58;98220.00;;;20.00
8362;BMP180;4218;48.326;14.304;2022-08-21T15:38:25;98231.00;;;20.00
8362;BMP180;4218;48.326;14.304;2022-08-21T15:40:51;98222.00;;;20.00
8362;BMP180;4218;48.326;14.304;2022-08-21T15:43:29;98230.00;;;20.00
8362;BMP180;4218;48.326;14.304;2022-08-21T15:45:55;98209.00;;;20.00